ROCKY HARBOUR CS/NF, current weather conditions

sailwx.info

Last reported at 2014-Jun-04 18:15 UTC.
Time now 2014-Oct-22 04:48 UTC

Location: N 49°34' W 057°53'.
View on Google Maps.

See reports from other nearby stations

  
Tides and Currents Weather Stations Pressure Air Temp Water Temp Dewpoint Dewpoint Depression Visibility Wind Speed Wind Dir Waves Ship Positions
date/time (UTC)wind fromknots sea level pressurealtimeterstation pressurevisibilityair tempwater tempwave heightnotes
2014-Oct-22 03:00 5.0
2014-Oct-22 02:00 320 1 5.0
2014-Oct-22 01:00 290 3 5.0
2014-Oct-22 00:00 270 5 5.0
2014-Oct-21 23:00 270 5 6.0
2014-Oct-21 22:00 250 8 6.0
2014-Oct-21 21:00 260 8 6.0
2014-Oct-21 20:00 250 10 gusting 15 6.0
2014-Oct-21 19:00 260 11 gusting 17 6.0
2014-Oct-21 18:00 250 11 gusting 17 6.0
2014-Oct-21 17:00 250 12 gusting 18 6.0
2014-Oct-21 16:00 250 12 gusting 19 6.0
2014-Oct-21 15:00 250 14 gusting 20 6.0
2014-Oct-21 14:00 250 14 gusting 22 7.0
2014-Oct-21 13:00 250 14 gusting 22 7.0
2014-Oct-21 12:00 250 15 gusting 20 6.0
2014-Oct-21 11:00 250 15 gusting 23 6.0
2014-Oct-21 10:00 250 17 gusting 27 6.0
2014-Oct-21 09:00 250 19 gusting 27 7.0
2014-Oct-21 08:00 240 22 gusting 30 6.0
2014-Oct-21 07:00 250 23 gusting 31 6.0
2014-Oct-21 06:00 250 22 gusting 32 6.0
2014-Oct-21 05:00 250 24 gusting 34 6.0
2014-Oct-21 04:00 250 26 gusting 38 6.0
2014-Oct-21 03:00 250 25 gusting 38 7.0
2014-Oct-21 02:00 250 23 gusting 37 7.0
2014-Oct-21 01:00 240 20 gusting 31 6.0
2014-Oct-21 00:00 250 26 gusting 40 6.0
2014-Oct-20 23:00 260 22 gusting 40 6.0
2014-Oct-20 22:00 220 13 gusting 23 6.0
2014-Oct-20 21:00 230 17 gusting 32 5.0
2014-Oct-20 20:00 230 18 gusting 31 6.0
2014-Oct-20 19:00 230 17 gusting 30 5.0
2014-Oct-20 18:00 230 14 gusting 24 5.0
2014-Oct-20 17:00 240 11 gusting 22 6.0
2014-Oct-20 16:00 240 14 gusting 29 8.0
2014-Oct-20 15:00 210 16 gusting 26 12.0
2014-Oct-20 14:00 150 9 gusting 19 18.0
2014-Oct-20 13:00 120 10 gusting 20 17.0
2014-Oct-20 12:00 140 7 gusting 16 16.0
2014-Oct-20 11:00 100 10 gusting 23 14.0
2014-Oct-20 10:00 090 10 gusting 20 14.0
2014-Oct-20 09:00 120 5 12.0
2014-Oct-20 08:00 110 4 12.0
2014-Oct-20 07:00 120 4 12.0
2014-Oct-20 06:00 130 6 13.0
2014-Oct-20 05:00 140 8 gusting 17 13.0